Time;durP1;ratioP1;P1;durP2;ratioP2;P2;SDS_P1;SDS_P2;PMS_P1;PMS_P2;Temp;Humidity;BMP_temperature;BMP_pressure;BME280_temperature;BME280_humidity;BME280_pressure;Samples;Min_cycle;Max_cycle;Signal;HPM_P1;HPM_P2
2022/07/03 00:00:11;;;;;;;53.03;50.42;;;;;;;26.18;38.32;101663.78;5056783;28;20065;-81
2022/07/03 00:02:36;;;;;;;52.75;49.95;;;;;;;26.17;38.10;101658.59;5056823;28;20029;-80
2022/07/03 00:05:02;;;;;;;53.03;50.33;;;;;;;26.11;37.71;101655.97;5056736;28;20041;-81
2022/07/03 00:07:27;;;;;;;52.28;49.67;;;;;;;26.08;38.22;101656.63;5056790;28;20029;-81
2022/07/03 00:09:53;;;;;;;54.05;51.45;;;;;;;26.06;37.60;101653.38;5056565;28;20469;-80
2022/07/03 00:12:18;;;;;;;52.55;49.95;;;;;;;26.02;37.93;101652.38;5055924;28;20037;-80
2022/07/03 00:14:44;;;;;;;51.90;49.30;;;;;;;26.00;38.36;101660.19;5054927;28;20033;-81
2022/07/03 00:17:09;;;;;;;53.63;51.08;;;;;;;25.97;37.80;101652.56;5056508;28;20071;-82
2022/07/03 00:19:34;;;;;;;54.60;51.05;;;;;;;25.95;37.73;101651.25;5056509;28;20397;-81
2022/07/03 00:22:07;;;;;;;55.47;52.75;;;;;;;25.92;37.91;101654.66;5056252;28;20041;-80
2022/07/03 00:24:42;;;;;;;50.97;48.38;;;;;;;25.88;38.15;101658.09;5056609;28;20029;-81
2022/07/03 00:27:09;;;;;;;49.28;46.88;;;;;;;25.85;37.89;101661.50;5055869;28;20060;-80
2022/07/03 00:29:41;;;;;;;48.78;46.28;;;;;;;25.82;38.45;101662.09;5056473;28;20036;-79
2022/07/03 00:32:09;;;;;;;48.72;46.35;;;;;;;25.80;38.07;101658.84;5055978;28;20087;-79
2022/07/03 00:34:36;;;;;;;49.55;47.15;;;;;;;25.77;37.98;101655.94;5056181;28;20029;-81
2022/07/03 00:37:04;;;;;;;53.75;50.95;;;;;;;25.73;38.03;101661.31;5055358;28;20103;-81
2022/07/03 00:39:29;;;;;;;49.13;46.53;;;;;;;25.71;38.50;101657.22;5056083;28;20033;-80
2022/07/03 00:42:03;;;;;;;51.45;48.95;;;;;;;25.68;38.01;101661.47;5054591;28;20082;-81
2022/07/03 00:44:30;;;;;;;49.95;47.50;;;;;;;25.64;38.12;101658.50;5055483;28;20424;-81
2022/07/03 00:46:56;;;;;;;49.15;46.75;;;;;;;25.62;38.42;101654.44;5056142;28;20029;-79
2022/07/03 00:49:24;;;;;;;48.92;46.17;;;;;;;25.59;38.46;101655.09;5055346;28;20036;-81
2022/07/03 00:51:53;;;;;;;49.72;47.30;;;;;;;25.56;38.47;101658.50;5055016;28;20158;-80
2022/07/03 00:54:22;;;;;;;48.28;45.97;;;;;;;25.53;38.56;101659.13;5055851;28;20120;-80
2022/07/03 00:56:51;;;;;;;48.65;46.28;;;;;;;25.51;38.50;101658.66;5055690;28;20029;-77
2022/07/03 00:59:17;;;;;;;49.53;47.13;;;;;;;25.47;38.59;101664.81;5055743;28;20035;-81
2022/07/03 01:01:45;;;;;;;49.13;46.72;;;;;;;25.43;38.61;101668.56;5055796;28;20095;-81
2022/07/03 01:04:35;;;;;;;49.22;46.92;;;;;;;25.41;38.55;101659.75;5055516;28;20052;-80
2022/07/03 01:07:05;;;;;;;50.53;48.10;;;;;;;25.37;38.67;101648.50;5054617;28;20115;-80
2022/07/03 01:09:42;;;;;;;47.63;45.33;;;;;;;25.33;38.65;101664.13;5055755;28;20020;-80
2022/07/03 01:12:23;;;;;;;46.40;43.80;;;;;;;25.31;38.77;101651.78;5055429;28;20036;-80
2022/07/03 01:14:57;;;;;;;48.60;46.30;;;;;;;25.28;38.49;101655.19;5055541;28;20039;-73
2022/07/03 01:17:37;;;;;;;48.33;45.53;;;;;;;25.25;38.30;101654.69;5055347;28;20036;-80
2022/07/03 01:20:04;;;;;;;48.85;46.20;;;;;;;25.21;38.65;101650.91;5055284;28;20139;-80
2022/07/03 01:22:41;;;;;;;48.80;46.10;;;;;;;25.18;38.39;101646.03;5055376;28;20025;-81
2022/07/03 01:25:45;;;;;;;48.58;46.20;;;;;;;25.16;38.84;101652.97;5055609;28;20029;-82
2022/07/03 01:28:15;;;;;;;47.25;44.90;;;;;;;25.11;38.83;101648.41;5055568;28;20106;-81
2022/07/03 01:30:42;;;;;;;47.70;45.40;;;;;;;25.08;38.98;101643.53;5054835;28;20029;-79
2022/07/03 01:33:14;;;;;;;47.25;44.95;;;;;;;25.05;38.84;101646.94;5055015;28;20111;-79
2022/07/03 01:35:47;;;;;;;50.33;47.72;;;;;;;25.03;39.20;101643.66;5055771;28;20473;-79
2022/07/03 01:38:13;;;;;;;47.03;44.72;;;;;;;24.99;38.78;101637.94;5055154;28;20029;-80
2022/07/03 01:40:41;;;;;;;46.38;43.97;;;;;;;24.98;38.88;101638.28;5054977;28;20071;-81
2022/07/03 01:43:12;;;;;;;48.25;45.60;;;;;;;24.95;38.71;101641.69;5054917;28;20037;-81
2022/07/03 01:45:49;;;;;;;47.00;44.30;;;;;;;24.91;38.84;101644.25;5053530;28;20025;-80
2022/07/03 01:48:17;;;;;;;45.13;42.83;;;;;;;24.89;38.50;101640.19;5055243;28;20369;-79
2022/07/03 01:50:46;;;;;;;43.47;41.30;;;;;;;24.86;38.99;101635.31;5054711;28;20025;-78
2022/07/03 01:53:14;;;;;;;45.47;43.17;;;;;;;24.83;38.82;101636.75;5054694;28;20040;-80
2022/07/03 01:55:41;;;;;;;44.05;41.85;;;;;;;24.79;38.65;101636.56;5055336;28;20122;-79
2022/07/03 01:58:07;;;;;;;45.22;42.95;;;;;;;24.77;38.76;101638.00;5053152;28;20033;-79
2022/07/03 02:00:42;;;;;;;43.00;40.90;;;;;;;24.75;38.76;101637.53;5054084;28;20394;-78
2022/07/03 02:03:07;;;;;;;44.45;42.25;;;;;;;24.72;38.96;101643.66;5054159;28;20385;-80
2022/07/03 02:05:44;;;;;;;46.80;44.53;;;;;;;24.69;39.08;101633.25;5053181;28;20482;-78
2022/07/03 02:08:33;;;;;;;44.33;42.17;;;;;;;24.66;38.71;101631.13;5054519;28;20362;-78
2022/07/03 02:11:12;;;;;;;43.60;41.47;;;;;;;24.61;38.90;101624.59;5054144;28;20179;-79
2022/07/03 02:13:58;;;;;;;45.05;42.95;;;;;;;24.58;38.69;101630.75;5054344;28;20029;-80
2022/07/03 02:16:27;;;;;;;43.95;41.85;;;;;;;24.55;38.58;101622.31;5050021;28;20045;-80
2022/07/03 02:19:04;;;;;;;44.63;42.45;;;;;;;24.53;39.30;101619.84;5054514;28;20033;-78
2022/07/03 02:21:30;;;;;;;45.75;43.42;;;;;;;24.50;39.31;101611.38;5054372;28;20401;-79
2022/07/03 02:24:34;;;;;;;45.30;43.10;;;;;;;24.48;38.71;101619.97;5054229;28;20090;-79
2022/07/03 02:27:03;;;;;;;41.50;39.47;;;;;;;24.44;38.85;101620.88;5042484;28;20473;-79
2022/07/03 02:29:36;;;;;;;42.17;40.17;;;;;;;24.40;38.88;101616.00;5053473;28;20049;-79
2022/07/03 02:32:11;;;;;;;42.75;40.58;;;;;;;24.37;38.83;101613.06;5053922;28;20079;-79
2022/07/03 02:34:38;;;;;;;44.40;42.20;;;;;;;24.34;39.28;101610.91;5054782;28;20025;-79
2022/07/03 02:37:17;;;;;;;45.58;43.30;;;;;;;24.32;39.47;101613.19;5052928;28;20067;-80
2022/07/03 02:39:53;;;;;;;44.50;42.40;;;;;;;24.29;39.25;101614.66;5053757;28;20029;-78
2022/07/03 02:42:47;;;;;;;45.15;42.85;;;;;;;24.27;38.91;101613.34;5054184;28;20469;-78
2022/07/03 02:45:13;;;;;;;43.38;40.97;;;;;;;24.23;38.99;101617.84;5053762;28;20576;-79
2022/07/03 02:48:03;;;;;;;43.15;41.03;;;;;;;24.20;39.29;101619.28;5053623;28;20064;-79
2022/07/03 02:50:33;;;;;;;43.47;41.13;;;;;;;24.17;38.93;101622.69;5054346;28;20025;-78
2022/07/03 02:53:06;;;;;;;40.97;38.95;;;;;;;24.14;39.42;101617.75;5053248;28;20082;-78
2022/07/03 02:55:32;;;;;;;41.10;39.10;;;;;;;24.11;39.08;101621.97;5053675;28;20025;-79
2022/07/03 02:58:41;;;;;;;42.03;39.80;;;;;;;24.08;39.56;101622.59;5052372;28;20040;-78
2022/07/03 03:01:28;;;;;;;43.05;40.97;;;;;;;24.05;39.07;101626.00;5053695;28;20025;-79
2022/07/03 03:04:28;;;;;;;40.88;38.75;;;;;;;24.03;38.98;101630.19;5053597;28;20028;-78
2022/07/03 03:07:00;;;;;;;41.67;39.28;;;;;;;23.98;39.64;101626.41;5054325;28;20032;-79
2022/07/03 03:09:47;;;;;;;43.30;41.20;;;;;;;23.95;39.36;101629.78;5054023;28;20338;-80
2022/07/03 03:12:13;;;;;;;41.28;39.20;;;;;;;23.93;39.15;101631.25;5053658;28;20052;-78
2022/07/03 03:14:43;;;;;;;42.75;40.55;;;;;;;23.90;39.49;101632.69;5056498;28;20064;-80
2022/07/03 03:17:23;;;;;;;44.28;42.10;;;;;;;23.89;39.31;101630.22;5057536;28;20037;-79
2022/07/03 03:19:55;;;;;;;40.55;38.55;;;;;;;23.85;39.11;101627.28;5057562;28;20055;-77
2022/07/03 03:22:41;;;;;;;41.45;39.25;;;;;;;23.84;39.58;101627.56;5057450;28;20033;-79
2022/07/03 03:25:07;;;;;;;41.42;39.42;;;;;;;23.79;39.36;101627.69;5057630;28;20029;-78
2022/07/03 03:27:33;;;;;;;41.70;39.50;;;;;;;23.77;39.65;101627.22;5057523;28;20172;-79
2022/07/03 03:29:59;;;;;;;41.00;38.80;;;;;;;23.75;39.65;101630.28;5057548;28;20508;-80
2022/07/03 03:32:26;;;;;;;43.17;40.80;;;;;;;23.72;39.21;101633.63;5057296;28;20040;-80
2022/07/03 03:34:51;;;;;;;41.88;39.78;;;;;;;23.69;39.93;101632.31;5057493;28;20469;-80
2022/07/03 03:37:17;;;;;;;44.55;42.25;;;;;;;23.67;39.45;101637.31;5057499;28;20032;-80
2022/07/03 03:39:43;;;;;;;39.67;37.60;;;;;;;23.66;39.86;101640.38;5057310;28;20484;-77
2022/07/03 03:42:08;;;;;;;43.42;41.33;;;;;;;23.63;39.29;101622.50;5057169;28;20037;-77
2022/07/03 03:44:34;;;;;;;41.13;38.92;;;;;;;23.61;39.31;101622.00;5057297;28;20033;-79
2022/07/03 03:46:59;;;;;;;39.22;37.28;;;;;;;23.59;39.95;101624.25;5055855;28;20064;-81
2022/07/03 03:49:25;;;;;;;43.03;40.65;;;;;;;23.57;39.80;101632.03;5057034;28;20472;-80
2022/07/03 03:51:52;;;;;;;41.80;39.70;;;;;;;23.53;39.77;101636.50;5057423;28;20108;-81
2022/07/03 03:54:17;;;;;;;41.25;39.05;;;;;;;23.52;39.35;101640.41;5057354;28;20029;-77
2022/07/03 03:56:43;;;;;;;40.10;38.10;;;;;;;23.49;39.41;101627.25;5057014;28;20025;-80
2022/07/03 03:59:08;;;;;;;40.03;38.05;;;;;;;23.47;39.47;101637.75;5057178;28;20064;-78
2022/07/03 04:01:34;;;;;;;42.25;39.92;;;;;;;23.44;39.75;101630.09;5056727;28;20041;-79
2022/07/03 04:03:59;;;;;;;41.00;38.80;;;;;;;23.41;39.78;101625.19;5057124;28;20062;-78
2022/07/03 04:06:25;;;;;;;41.55;39.45;;;;;;;23.39;39.92;101631.03;5055609;28;20112;-78
2022/07/03 04:08:51;;;;;;;41.17;39.13;;;;;;;23.40;39.59;101645.63;5057048;28;20546;-80
2022/07/03 04:11:16;;;;;;;41.60;39.50;;;;;;;23.36;39.99;101639.91;5056251;28;20056;-79
2022/07/03 04:13:42;;;;;;;41.70;39.60;;;;;;;23.33;39.61;101633.06;5056396;28;20084;-80
2022/07/03 04:16:07;;;;;;;41.75;39.53;;;;;;;23.31;39.51;101637.25;5055130;28;20389;-79
2022/07/03 04:18:32;;;;;;;40.70;38.72;;;;;;;23.27;39.56;101637.03;5056401;28;20033;-79
2022/07/03 04:20:58;;;;;;;41.63;39.53;;;;;;;23.25;40.01;101633.78;5056647;28;20450;-78
2022/07/03 04:23:23;;;;;;;42.05;39.95;;;;;;;23.23;39.47;101635.19;5056864;28;20091;-79
2022/07/03 04:25:49;;;;;;;41.28;39.17;;;;;;;23.22;39.94;101636.34;5056073;28;20040;-80
2022/07/03 04:28:14;;;;;;;39.63;37.08;;;;;;;23.19;40.00;101642.47;5056460;28;20477;-78
2022/07/03 04:30:40;;;;;;;40.80;38.60;;;;;;;23.16;39.46;101632.03;5055989;28;20041;-81
2022/07/03 04:33:05;;;;;;;41.00;39.00;;;;;;;23.14;39.87;101640.63;5056084;28;20457;-81
2022/07/03 04:35:31;;;;;;;41.92;39.72;;;;;;;23.11;40.09;101642.06;5056054;28;20461;-78
2022/07/03 04:37:56;;;;;;;40.60;38.60;;;;;;;23.10;40.08;101645.91;5054755;28;20041;-80
2022/07/03 04:40:21;;;;;;;40.05;38.05;;;;;;;23.08;39.66;101655.59;5056292;28;20457;-79
2022/07/03 04:42:47;;;;;;;40.17;38.28;;;;;;;23.07;39.73;101654.00;5055616;28;20040;-78
2022/07/03 04:45:12;;;;;;;38.47;36.58;;;;;;;23.05;40.07;101658.97;5056098;28;20033;-79
2022/07/03 04:47:38;;;;;;;40.08;38.03;;;;;;;23.03;40.39;101650.19;5055839;28;20087;-80
2022/07/03 04:50:03;;;;;;;40.17;38.17;;;;;;;23.01;40.38;101658.78;5054568;28;20378;-79
2022/07/03 04:52:29;;;;;;;40.20;38.20;;;;;;;22.99;40.02;101652.75;5055727;28;20033;-81
2022/07/03 04:54:54;;;;;;;39.60;37.67;;;;;;;22.98;40.07;101664.06;5056365;28;20116;-80
2022/07/03 04:57:19;;;;;;;39.78;37.67;;;;;;;22.96;39.84;101658.03;5055626;28;20390;-80
2022/07/03 04:59:46;;;;;;;38.90;36.90;;;;;;;22.94;40.43;101652.03;5055448;28;20066;-80
2022/07/03 05:02:11;;;;;;;40.53;38.42;;;;;;;22.92;39.95;101659.75;5054794;28;20033;-79
2022/07/03 05:04:37;;;;;;;40.53;38.33;;;;;;;22.92;40.14;101668.03;5055357;28;20426;-80
2022/07/03 05:07:02;;;;;;;38.97;36.88;;;;;;;22.89;39.97;101663.94;5054772;28;20457;-80
2022/07/03 05:09:28;;;;;;;42.15;39.95;;;;;;;22.87;40.19;101667.00;5055625;28;20025;-82
2022/07/03 05:11:53;;;;;;;38.88;36.88;;;;;;;22.86;39.97;101667.31;5055632;28;20069;-81
2022/07/03 05:14:19;;;;;;;37.90;36.00;;;;;;;22.84;40.33;101670.34;5054394;28;20466;-75
2022/07/03 05:16:44;;;;;;;38.85;36.85;;;;;;;22.83;40.18;101674.25;5055144;28;20033;-79
2022/07/03 05:19:09;;;;;;;39.38;37.38;;;;;;;22.82;40.42;101669.84;5054652;28;20094;-81
2022/07/03 05:21:35;;;;;;;40.45;38.35;;;;;;;22.82;40.34;101671.78;5054116;28;20512;-80
2022/07/03 05:24:00;;;;;;;39.30;37.30;;;;;;;22.80;40.33;101669.31;5055506;28;20461;-81
2022/07/03 05:26:25;;;;;;;39.75;37.75;;;;;;;22.79;40.01;101670.44;5054910;28;20100;-78
2022/07/03 05:28:51;;;;;;;39.13;37.22;;;;;;;22.78;40.54;101668.81;5056303;28;20049;-80
2022/07/03 05:31:16;;;;;;;39.03;36.88;;;;;;;22.79;40.20;101675.97;5056940;28;20082;-80
2022/07/03 05:33:41;;;;;;;39.35;37.35;;;;;;;22.78;40.30;101674.34;5055750;28;20492;-80
2022/07/03 05:36:07;;;;;;;39.22;37.33;;;;;;;22.78;40.20;101673.50;5053729;28;20064;-81
2022/07/03 05:41:17;;;;;;;39.00;36.80;;;;;;;22.77;40.71;101674.63;5058248;28;20542;-78
2022/07/03 05:43:43;;;;;;;39.45;37.47;;;;;;;22.76;40.64;101679.31;5059082;28;20033;-77
2022/07/03 05:46:08;;;;;;;39.97;37.97;;;;;;;22.76;40.20;101673.81;5064277;28;20036;-79
2022/07/03 05:48:34;;;;;;;39.33;37.33;;;;;;;22.77;40.87;101672.69;5070299;28;20047;-81
2022/07/03 05:51:00;;;;;;;37.58;35.47;;;;;;;22.77;40.80;101678.19;5069750;28;20056;-79
2022/07/03 05:53:25;;;;;;;38.55;36.63;;;;;;;22.77;40.90;101686.47;5059015;28;20037;-82
2022/07/03 05:55:50;;;;;;;38.33;36.28;;;;;;;22.78;41.06;101682.59;5057486;28;20033;-80
2022/07/03 05:58:16;;;;;;;38.75;36.63;;;;;;;22.79;40.66;101678.72;5041094;28;20389;-82
2022/07/03 06:00:42;;;;;;;37.35;35.45;;;;;;;22.81;40.66;101690.25;5057551;28;20356;-81
2022/07/03 06:03:08;;;;;;;36.67;34.78;;;;;;;22.80;41.08;101688.59;5058424;28;20036;-80
2022/07/03 06:05:34;;;;;;;39.78;37.45;;;;;;;22.82;40.93;101683.59;5059513;28;20032;-81
2022/07/03 06:07:59;;;;;;;38.97;37.00;;;;;;;22.83;40.78;101687.19;5062720;28;20044;-81
2022/07/03 06:10:26;;;;;;;39.00;36.83;;;;;;;22.84;40.81;101688.81;5069027;28;20037;-82
2022/07/03 06:12:51;;;;;;;37.85;35.65;;;;;;;22.84;41.38;101697.91;5071233;28;20032;-80
2022/07/03 06:15:17;;;;;;;36.97;34.58;;;;;;;22.85;41.27;101699.53;5068252;28;20036;-80
2022/07/03 06:17:43;;;;;;;39.17;37.05;;;;;;;22.86;41.15;101692.91;5061319;28;20044;-79
2022/07/03 06:20:09;;;;;;;38.03;36.13;;;;;;;22.88;41.14;101698.09;5054913;28;20374;-80
2022/07/03 06:22:35;;;;;;;39.88;37.15;;;;;;;22.89;41.41;101697.81;5054937;28;20087;-81
2022/07/03 06:25:00;;;;;;;39.40;37.28;;;;;;;22.90;41.10;101695.88;5054174;28;20025;-81
2022/07/03 06:27:26;;;;;;;39.63;37.53;;;;;;;22.92;41.64;101693.63;5054407;28;20136;-81
2022/07/03 06:29:51;;;;;;;38.78;36.47;;;;;;;22.94;41.24;101687.84;5053613;28;20381;-82
2022/07/03 06:32:17;;;;;;;39.83;37.83;;;;;;;22.95;41.22;101701.28;5054373;28;20033;-80
2022/07/03 06:34:43;;;;;;;38.35;36.38;;;;;;;22.96;41.69;101697.44;5054272;28;20445;-82
2022/07/03 06:37:09;;;;;;;39.33;37.22;;;;;;;22.99;41.51;101696.03;5053337;28;20037;-82
2022/07/03 06:39:35;;;;;;;39.83;37.70;;;;;;;23.00;41.95;101690.19;5054554;28;20029;-81
2022/07/03 06:42:00;;;;;;;40.88;38.53;;;;;;;23.02;41.66;101695.41;5054001;28;20128;-82
2022/07/03 06:44:26;;;;;;;38.47;36.60;;;;;;;23.04;42.06;101691.25;5054453;28;20108;-79
2022/07/03 06:46:51;;;;;;;38.55;36.55;;;;;;;23.07;41.83;101692.56;5052690;28;20056;-78
2022/07/03 06:49:16;;;;;;;38.00;35.95;;;;;;;23.08;41.93;101685.94;5054260;28;20449;-79
2022/07/03 06:51:42;;;;;;;39.33;37.05;;;;;;;23.09;41.50;101688.38;5054628;28;20028;-82
2022/07/03 06:54:07;;;;;;;39.03;36.85;;;;;;;23.13;41.57;101690.53;5054559;28;20037;-80
2022/07/03 06:56:32;;;;;;;42.85;40.42;;;;;;;23.15;41.83;101689.09;5054213;28;20056;-79
2022/07/03 06:58:58;;;;;;;42.20;39.85;;;;;;;23.17;42.31;101688.81;5055306;28;20029;-81
2022/07/03 07:01:23;;;;;;;40.10;37.90;;;;;;;23.18;42.28;101687.66;5054485;28;20025;-81
2022/07/03 07:03:48;;;;;;;40.22;38.13;;;;;;;23.20;42.06;101694.50;5054139;28;20473;-81
2022/07/03 07:06:14;;;;;;;37.92;36.13;;;;;;;23.23;42.43;101682.06;5054088;28;20041;-80
2022/07/03 07:08:39;;;;;;;43.67;41.08;;;;;;;23.25;42.43;101691.66;5053355;28;20039;-82
2022/07/03 07:11:04;;;;;;;42.03;39.78;;;;;;;23.27;42.80;101694.13;5053999;28;20072;-82
2022/07/03 07:13:30;;;;;;;40.72;38.42;;;;;;;23.28;43.00;101688.31;5052772;28;20538;-81
2022/07/03 07:15:55;;;;;;;40.70;38.45;;;;;;;23.33;42.84;101690.13;5052382;28;20439;-79
2022/07/03 07:18:20;;;;;;;41.10;38.63;;;;;;;23.36;42.72;101702.47;5053361;28;20033;-78
2022/07/03 07:20:46;;;;;;;40.80;38.60;;;;;;;23.38;42.72;101701.06;5054364;28;20120;-82
2022/07/03 07:23:11;;;;;;;40.17;38.13;;;;;;;23.41;42.73;101711.50;5053610;28;20033;-82
2022/07/03 07:25:37;;;;;;;40.45;38.35;;;;;;;23.43;42.81;101709.22;5053256;28;20067;-82
2022/07/03 07:28:02;;;;;;;39.28;36.92;;;;;;;23.46;42.55;101714.16;5053835;28;20045;-82
2022/07/03 07:30:28;;;;;;;42.92;40.50;;;;;;;23.49;42.98;101716.28;5053524;28;20021;-82
2022/07/03 07:32:53;;;;;;;41.92;39.72;;;;;;;23.53;42.50;101713.72;5052144;28;20070;-84
2022/07/03 07:35:18;;;;;;;42.30;40.15;;;;;;;23.57;42.51;101717.50;5053343;28;20029;-83
2022/07/03 07:37:44;;;;;;;43.55;41.20;;;;;;;23.60;42.89;101719.66;5053333;28;20037;-83
2022/07/03 07:40:10;;;;;;;41.20;39.20;;;;;;;23.64;43.06;101714.34;5053250;28;20063;-82
2022/07/03 07:42:35;;;;;;;40.97;38.88;;;;;;;23.68;42.75;101726.38;5053579;28;20111;-81
2022/07/03 07:45:01;;;;;;;42.67;40.47;;;;;;;23.70;42.88;101716.69;5053723;28;20354;-82
2022/07/03 07:47:26;;;;;;;40.70;38.65;;;;;;;23.74;43.12;101720.50;5053195;28;20033;-81
2022/07/03 07:49:51;;;;;;;42.55;40.15;;;;;;;23.80;42.70;101721.19;5053231;28;20029;-82
2022/07/03 07:52:17;;;;;;;43.88;41.38;;;;;;;23.86;42.69;101716.38;5053286;28;20508;-82
2022/07/03 07:54:42;;;;;;;43.08;40.78;;;;;;;23.89;42.98;101718.50;5053614;28;20043;-81
2022/07/03 07:57:08;;;;;;;45.60;43.10;;;;;;;23.92;42.90;101715.97;5053748;28;20045;-82
2022/07/03 07:59:33;;;;;;;43.50;41.40;;;;;;;23.96;43.06;101718.91;5054997;28;20036;-83
2022/07/03 08:07:26;;;;;;;41.58;39.58;;;;;;;24.08;42.93;101716.44;5058086;28;20124;-82
2022/07/03 08:09:53;;;;;;;43.25;41.00;;;;;;;24.14;43.33;101717.13;5057738;28;20055;-83
2022/07/03 08:12:19;;;;;;;43.45;41.22;;;;;;;24.20;43.45;101721.44;5057177;28;20033;-82
2022/07/03 08:14:44;;;;;;;43.30;41.00;;;;;;;24.25;42.94;101717.72;5056902;28;20048;-83
2022/07/03 08:17:10;;;;;;;46.10;43.47;;;;;;;24.30;42.92;101729.47;5056659;28;20025;-82
2022/07/03 08:19:35;;;;;;;44.58;42.17;;;;;;;24.35;43.26;101725.78;5056696;28;20025;-82
2022/07/03 08:22:01;;;;;;;45.97;43.47;;;;;;;24.39;43.16;101719.31;5056839;28;20520;-83
2022/07/03 08:24:27;;;;;;;44.97;42.80;;;;;;;24.45;43.30;101722.81;5039163;28;20033;-82
2022/07/03 08:26:52;;;;;;;44.28;41.83;;;;;;;24.52;43.11;101730.63;5055915;28;20028;-82
2022/07/03 08:29:18;;;;;;;46.28;43.75;;;;;;;24.57;43.18;101727.78;5056552;28;20032;-84
2022/07/03 08:31:43;;;;;;;45.20;42.75;;;;;;;24.61;43.28;101724.03;5056337;28;20500;-74
2022/07/03 08:34:12;;;;;;;43.30;40.90;;;;;;;24.66;43.13;101720.34;5057362;28;20112;-83
2022/07/03 08:36:40;;;;;;;46.72;43.80;;;;;;;24.73;43.12;101720.72;5056769;28;20067;-84
2022/07/03 08:39:06;;;;;;;44.03;41.88;;;;;;;24.79;43.50;101719.44;5056183;28;20496;-82
2022/07/03 08:41:33;;;;;;;44.53;41.97;;;;;;;24.86;43.03;101721.78;5056271;28;20072;-83
2022/07/03 08:44:00;;;;;;;45.75;43.28;;;;;;;24.92;42.97;101720.53;5056355;28;20036;-82
2022/07/03 08:46:27;;;;;;;46.72;44.20;;;;;;;24.99;43.31;101717.28;5056558;28;20068;-83
2022/07/03 08:48:54;;;;;;;47.35;44.90;;;;;;;25.06;42.81;101720.44;5057390;28;20571;-83
2022/07/03 08:51:21;;;;;;;45.28;43.08;;;;;;;25.13;43.17;101719.97;5056268;28;20033;-83
2022/07/03 08:53:47;;;;;;;47.22;44.75;;;;;;;25.19;43.21;101724.25;5056931;28;20045;-78
2022/07/03 08:56:13;;;;;;;46.47;44.15;;;;;;;25.27;42.82;101723.47;5056143;28;20393;-84
2022/07/03 08:58:38;;;;;;;47.38;45.08;;;;;;;25.32;42.96;101717.81;5056077;28;20025;-82
2022/07/03 09:01:04;;;;;;;50.75;48.05;;;;;;;25.35;42.64;101713.56;5055610;28;20048;-83
2022/07/03 09:03:31;;;;;;;48.45;45.85;;;;;;;25.40;42.54;101716.19;5055979;28;20040;-83
2022/07/03 09:05:58;;;;;;;49.95;47.15;;;;;;;25.46;42.71;101724.03;5056262;28;20041;-82
2022/07/03 09:08:27;;;;;;;47.20;44.50;;;;;;;25.54;42.65;101722.44;5056344;28;20040;-85
2022/07/03 09:10:52;;;;;;;48.55;46.00;;;;;;;25.60;42.50;101728.63;5056757;28;20037;-82
2022/07/03 09:13:18;;;;;;;47.67;45.28;;;;;;;25.66;42.66;101721.84;5054602;28;20060;-81
2022/07/03 09:15:44;;;;;;;49.75;47.25;;;;;;;25.73;42.31;101727.72;5055629;28;20492;-82
2022/07/03 09:18:10;;;;;;;49.55;47.15;;;;;;;25.81;42.11;101724.16;5055688;28;20136;-81
2022/07/03 09:20:41;;;;;;;51.70;48.88;;;;;;;25.88;42.26;101724.53;5054226;28;20059;-83
2022/07/03 09:23:18;;;;;;;52.78;50.15;;;;;;;25.96;42.41;101722.09;5055256;28;20031;-81
2022/07/03 09:25:57;;;;;;;49.13;46.60;;;;;;;26.03;42.30;101727.94;5055594;28;20043;-83
2022/07/03 09:28:40;;;;;;;50.10;47.45;;;;;;;26.09;42.19;101729.44;5053600;28;20057;-84
2022/07/03 09:31:06;;;;;;;50.55;48.10;;;;;;;26.17;42.42;101734.16;5055513;28;20076;-82
2022/07/03 09:33:31;;;;;;;52.85;49.95;;;;;;;26.25;42.29;101729.75;5054339;28;20056;-83
2022/07/03 09:35:57;;;;;;;51.28;48.47;;;;;;;26.29;42.30;101731.56;5054602;28;20442;-83
2022/07/03 09:38:23;;;;;;;49.60;47.10;;;;;;;26.37;42.06;101738.25;5055517;28;20540;-81
2022/07/03 09:40:55;;;;;;;50.88;48.38;;;;;;;26.44;41.78;101735.00;5055080;28;20091;-81
2022/07/03 09:43:30;;;;;;;51.85;49.15;;;;;;;26.49;41.60;101740.38;5055073;28;20086;-82
2022/07/03 09:45:57;;;;;;;52.88;50.25;;;;;;;26.54;41.59;101737.47;5054974;28;20041;-80
2022/07/03 09:48:25;;;;;;;52.40;49.57;;;;;;;26.61;41.71;101739.72;5055572;28;20064;-82
2022/07/03 09:51:17;;;;;;;52.00;49.30;;;;;;;26.67;41.49;101739.22;5054913;28;20381;-82
2022/07/03 09:54:00;;;;;;;51.30;48.60;;;;;;;26.73;41.70;101743.44;5055487;28;20060;-82
2022/07/03 09:56:36;;;;;;;54.40;51.80;;;;;;;26.81;41.74;101743.75;5054682;28;20033;-81
2022/07/03 09:59:08;;;;;;;55.25;52.45;;;;;;;26.84;41.16;101746.72;5056988;28;20025;-81
2022/07/03 10:01:37;;;;;;;52.60;49.90;;;;;;;26.90;41.15;101747.34;5056654;28;20021;-80
2022/07/03 10:04:12;;;;;;;53.70;51.00;;;;;;;26.96;41.46;101740.47;5056400;28;20025;-80
2022/07/03 10:06:51;;;;;;;56.15;53.28;;;;;;;27.02;41.45;101744.72;5056767;28;20112;-81
2022/07/03 10:09:31;;;;;;;56.53;53.30;;;;;;;27.04;41.26;101742.41;5057964;28;20461;-77
2022/07/03 10:11:58;;;;;;;53.78;51.05;;;;;;;27.10;41.44;101745.81;5058049;28;20033;-76
2022/07/03 10:14:27;;;;;;;54.33;51.67;;;;;;;27.14;40.94;101744.00;5056050;28;20057;-81
2022/07/03 10:16:52;;;;;;;;;;;;;;;27.17;41.08;101741.41;5058294;28;20025;-82
2022/07/03 10:19:22;;;;;;;52.95;50.25;;;;;;;27.22;40.95;101745.97;5058434;28;19915;-81
2022/07/03 10:21:52;;;;;;;54.80;52.10;;;;;;;27.27;40.83;101750.53;5074435;28;20033;-80
2022/07/03 10:24:20;;;;;;;54.30;51.58;;;;;;;27.32;40.83;101747.59;5076272;28;20029;-79
2022/07/03 10:26:47;;;;;;;53.30;50.80;;;;;;;27.36;41.07;101749.34;5066991;28;20041;-80
2022/07/03 10:29:15;;;;;;;55.28;52.38;;;;;;;27.40;40.79;101749.50;5077019;28;20049;-77
2022/07/03 10:31:44;;;;;;;56.45;53.58;;;;;;;27.45;40.79;101756.81;5077841;28;20033;-78
2022/07/03 10:34:10;;;;;;;55.88;53.08;;;;;;;27.48;40.90;101765.28;5077691;28;20037;-80
2022/07/03 10:36:37;;;;;;;55.15;52.45;;;;;;;27.52;40.52;101763.47;5076040;28;20036;-78
2022/07/03 10:39:06;;;;;;;54.90;52.05;;;;;;;27.56;40.30;101763.63;5077140;28;20017;-78
2022/07/03 10:47:46;;;;;;;55.83;52.88;;;;;;;27.67;40.23;101761.28;5055937;28;20083;-80
2022/07/03 10:50:21;;;;;;;54.55;51.85;;;;;;;27.69;40.12;101761.75;5055847;28;20471;-83
2022/07/03 10:52:47;;;;;;;56.45;53.75;;;;;;;27.73;40.31;101762.72;5055709;28;20037;-81
2022/07/03 10:55:14;;;;;;;56.38;53.30;;;;;;;27.75;39.71;101766.78;5059923;28;20061;-80
2022/07/03 10:58:00;;;;;;;56.40;53.70;;;;;;;27.79;40.11;101764.16;5054916;28;20578;-81
2022/07/03 11:00:26;;;;;;;55.75;53.05;;;;;;;27.82;40.29;101769.06;5054609;28;20428;-80
2022/07/03 11:02:52;;;;;;;55.88;53.28;;;;;;;27.84;39.59;101769.53;5054349;28;20477;-80
2022/07/03 11:05:21;;;;;;;56.30;53.05;;;;;;;27.87;39.78;101762.50;5054065;28;20048;-81
2022/07/03 11:07:50;;;;;;;55.90;53.30;;;;;;;27.89;39.54;101758.22;5053835;28;20029;-80
2022/07/03 11:10:15;;;;;;;;;;;;;;;27.90;39.83;101759.06;5054019;28;20029;-81
2022/07/03 11:12:54;;;;;;;55.33;52.72;;;;;;;27.91;39.80;101753.16;5052334;28;19923;-78
2022/07/03 11:15:45;;;;;;;54.95;52.25;;;;;;;27.93;39.84;101756.44;5053287;28;20040;-79
2022/07/03 11:18:31;;;;;;;59.50;56.63;;;;;;;27.96;39.17;101746.59;5053625;28;20028;-78
2022/07/03 11:21:11;;;;;;;60.30;57.47;;;;;;;27.99;39.43;101743.16;5053883;28;20107;-79
2022/07/03 11:23:52;;;;;;;57.40;54.60;;;;;;;28.02;39.60;101731.34;5055283;28;20033;-78
2022/07/03 11:26:17;;;;;;;57.03;54.30;;;;;;;28.03;39.32;101728.25;5054119;28;20381;-81
2022/07/03 11:28:43;;;;;;;55.28;52.47;;;;;;;28.04;39.54;101729.88;5054011;28;20053;-80
2022/07/03 11:33:48;;;;;;;57.33;54.63;;;;;;;28.10;39.03;101724.13;5053276;28;20033;-84